Stuttgart Echterdingen, Germany

8:02 PM CEST on July 27, 2016 (GMT +0200)
Wiesenstraße | | Change Station

Elev 1187 ft 48.68 °N, 9.23 °E | Updated 9 minutes ago

Clear
Clear
80.6 °F
Feels Like 80 °F
N
1.2
Wind Variable Wind from NNW
Gusts 5.6 mph

Today
High -- | Low -- °F
--% Chance of Precip.
Yesterday
High -- | Low -- °F
Precip. -- in
Pressure 30.04 in
Visibility -9999.0 miles
Clouds
Heat Index 80 °F
Dew Point 55 °F
Humidity 41%
Rainfall 0.00 in
Snow Depth Not available.
5:50 AM 9:07 PM
Last Quarter, 41% visible
METAR EDDS 271750Z 30010KT CAVOK 23/13 Q1017 NOSIG
Pressure 30.04 in
Visibility -9999.0 miles
Clouds
Heat Index 80 °F
Dew Point 55 °F
Humidity 41%
Rainfall 0.00 in
Snow Depth Not available.
5:50 AM 9:07 PM
Last Quarter, 41% visible
METAR EDDS 271750Z 30010KT CAVOK 23/13 Q1017 NOSIG

10-Day Weather Forecast

×

Almanac

Astronomy

Jul. 27, 2016 Rise Set
Actual Time
Civil Twilight
Nautical Twilight
Astronomical Twilight
Moon
Length of Visible Light
Length of Day
Tomorrow will be .
, % of the Moon is Illuminated

Today's Extremes

Country Highs Country Lows

Community

WunderPhotos

Upload Photos

1,927,892 photos uploaded!

WunderBlog® & News

Nearby

Air Quality

  Air Quality AQ Index Pollutant
Not available.

Snow Depth

Station Depth Elevation

Earthquake Activity

City Distance Mag. Time & Date
Minimum magnitude displayed is 2.5.

Coastal Water Temperatures

Place Temperature

Stations

Nearby Weather Stations

Station Location Temp. Windchill Dew Point Humidity Wind Precip. Elev Updated Type